Time;durP1;ratioP1;P1;durP2;ratioP2;P2;SDS_P1;SDS_P2;PMS_P1;PMS_P2;Temp;Humidity;BMP_temperature;BMP_pressure;BME280_temperature;BME280_humidity;BME280_pressure;Samples;Min_cycle;Max_cycle;Signal;HPM_P1;HPM_P2
2024/01/22 00:02:52;;;;;;;;;;;;;;;1.50;60.65;102387.94;5371454;32;34671;-63
2024/01/22 00:05:54;;;;;;;;;;;;;;;0.63;62.84;102379.09;5368432;32;35259;-64
2024/01/22 00:08:57;;;;;;;;;;;;;;;1.18;62.14;102381.78;5365877;32;34835;-70
2024/01/22 00:11:59;;;;;;;;;;;;;;;1.48;60.51;102358.50;5372524;32;34838;-72
2024/01/22 00:15:01;;;;;;;;;;;;;;;1.51;60.34;102357.72;5378474;32;34962;-69
2024/01/22 00:18:03;;;;;;;;;;;;;;;1.25;60.97;102360.41;5359267;32;35987;-71
2024/01/22 00:21:06;;;;;;;;;;;;;;;1.13;61.32;102369.50;5365556;32;34303;-71
2024/01/22 00:24:08;;;;;;;;;;;;;;;1.05;61.81;102356.31;5370638;32;34514;-64
2024/01/22 00:27:10;;;;;;;;;;;;;;;0.69;62.49;102356.91;5366826;32;34319;-64
2024/01/22 00:30:13;;;;;;;;;;;;;;;0.98;62.13;102363.03;5368374;32;34806;-71
2024/01/22 00:33:15;;;;;;;;;;;;;;;0.56;63.36;102365.09;5372565;32;35125;-71
2024/01/22 00:36:17;;;;;;;;;;;;;;;0.77;63.13;102357.12;5369112;32;34264;-65
2024/01/22 00:39:21;;;;;;;;;;;;;;;0.62;63.42;102359.25;5366321;32;34489;-71
2024/01/22 00:42:23;;;;;;;;;;;;;;;0.47;64.08;102347.56;5368010;32;34804;-70
2024/01/22 00:45:25;;;;;;;;;;;;;;;1.12;62.03;102342.72;5372415;32;34416;-71
2024/01/22 00:48:28;;;;;;;;;;;;;;;1.04;61.35;102345.09;5369187;32;34209;-64
2024/01/22 00:51:30;;;;;;;;;;;;;;;0.61;62.58;102355.78;5354040;32;34392;-71
2024/01/22 00:54:32;;;;;;;;;;;;;;;0.34;64.09;102345.37;5372546;32;35196;-64
2024/01/22 00:57:36;;;;;;;;;;;;;;;0.78;62.62;102327.88;5366175;32;34908;-69
2024/01/22 01:00:38;;;;;;;;;;;;;;;0.85;62.27;102328.94;5366185;32;34801;-69
2024/01/22 01:03:40;;;;;;;;;;;;;;;0.71;62.77;102325.88;5366183;32;34779;-65
2024/01/22 01:06:43;;;;;;;;;;;;;;;0.58;63.13;102328.91;5377853;32;34627;-66
2024/01/22 01:09:45;;;;;;;;;;;;;;;0.36;63.68;102333.38;5368725;32;34826;-70
2024/01/22 01:12:47;;;;;;;;;;;;;;;0.40;64.16;102330.06;5363316;32;34757;-72
2024/01/22 01:15:50;;;;;;;;;;;;;;;0.38;64.00;102329.13;5372005;32;34954;-71
2024/01/22 01:18:52;;;;;;;;;;;;;;;0.57;63.60;102328.03;5367866;32;35626;-70
2024/01/22 01:21:54;;;;;;;;;;;;;;;0.26;64.10;102315.81;5372780;32;35169;-65
2024/01/22 01:24:56;;;;;;;;;;;;;;;0.39;64.45;102317.09;5365390;32;34906;-63
2024/01/22 01:27:58;;;;;;;;;;;;;;;0.51;63.85;102317.47;5358908;32;34501;-64
2024/01/22 01:31:01;;;;;;;;;;;;;;;0.31;64.90;102329.75;5364186;32;35224;-64
2024/01/22 01:34:03;;;;;;;;;;;;;;;0.39;64.52;102302.44;5367005;32;34809;-64
2024/01/22 01:37:06;;;;;;;;;;;;;;;0.55;63.47;102301.22;5368787;32;34530;-71
2024/01/22 01:40:08;;;;;;;;;;;;;;;0.18;63.83;102304.31;5359192;32;34574;-72
2024/01/22 01:43:10;;;;;;;;;;;;;;;0.39;63.91;102312.81;5357059;32;34897;-71
2024/01/22 01:46:12;;;;;;;;;;;;;;;0.40;63.92;102309.38;5367307;32;34732;-72
2024/01/22 01:49:14;;;;;;;;;;;;;;;0.37;63.79;102303.22;5355323;32;34832;-71
2024/01/22 01:52:17;;;;;;;;;;;;;;;0.42;63.52;102304.25;5369639;32;35185;-71
2024/01/22 01:55:20;;;;;;;;;;;;;;;-0.48;66.23;102316.62;5367062;32;35306;-64
2024/01/22 01:58:22;;;;;;;;;;;;;;;-0.17;66.49;102303.97;5360625;32;34142;-70
2024/01/22 02:01:24;;;;;;;;;;;;;;;-0.34;65.97;102310.25;5322625;32;838074;-65
2024/01/22 02:04:26;;;;;;;;;;;;;;;-0.12;66.00;102302.44;5369362;32;34775;-70
2024/01/22 02:07:28;;;;;;;;;;;;;;;-0.51;66.33;102311.34;5352709;32;35062;-65
2024/01/22 02:10:31;;;;;;;;;;;;;;;-1.16;69.00;102313.16;5371878;32;34701;-63
2024/01/22 02:13:33;;;;;;;;;;;;;;;-1.28;69.68;102308.41;5371769;32;35547;-71
2024/01/22 02:16:35;;;;;;;;;;;;;;;-0.85;67.17;102313.53;5355617;32;34341;-64
2024/01/22 02:19:37;;;;;;;;;;;;;;;-1.08;68.57;102321.22;5374634;32;34936;-69
2024/01/22 02:22:40;;;;;;;;;;;;;;;-0.69;67.66;102316.72;5369367;32;35015;-71
2024/01/22 02:25:42;;;;;;;;;;;;;;;-1.28;68.30;102318.75;5356888;32;36708;-65
2024/01/22 02:28:47;;;;;;;;;;;;;;;-1.58;70.46;102312.34;5369106;32;35294;-65
2024/01/22 02:31:49;;;;;;;;;;;;;;;-2.10;71.35;102313.59;5370404;32;34372;-71
2024/01/22 02:34:51;;;;;;;;;;;;;;;-1.71;70.59;102309.25;5358288;32;34567;-71
2024/01/22 02:37:53;;;;;;;;;;;;;;;-1.37;68.63;102308.91;5350376;32;35289;-64
2024/01/22 02:40:55;;;;;;;;;;;;;;;-1.74;69.92;102314.28;5351867;32;34301;-65
2024/01/22 02:43:57;;;;;;;;;;;;;;;-1.43;69.45;102294.87;5369227;32;34891;-73
2024/01/22 02:47:00;;;;;;;;;;;;;;;-1.46;68.89;102293.09;5373640;32;35957;-63
2024/01/22 02:50:02;;;;;;;;;;;;;;;-1.41;69.07;102288.13;5369881;32;35440;-70
2024/01/22 02:53:04;;;;;;;;;;;;;;;-1.86;70.85;102285.41;5369739;32;35103;-63
2024/01/22 02:56:06;;;;;;;;;;;;;;;-1.47;69.20;102287.87;5358722;32;35686;-63
2024/01/22 02:59:08;;;;;;;;;;;;;;;-1.88;70.04;102287.03;5338043;32;34767;-66
2024/01/22 03:02:10;;;;;;;;;;;;;;;-2.43;72.19;102284.69;5353292;32;35032;-65
2024/01/22 03:05:13;;;;;;;;;;;;;;;-1.98;70.64;102284.91;5340515;32;34348;-64
2024/01/22 03:08:15;;;;;;;;;;;;;;;-2.05;71.26;102280.31;5372855;32;35478;-65
2024/01/22 03:11:17;;;;;;;;;;;;;;;-2.43;73.84;102279.53;5368908;32;34401;-63
2024/01/22 03:14:19;;;;;;;;;;;;;;;-2.37;72.56;102264.34;5342918;32;35257;-64
2024/01/22 03:17:21;;;;;;;;;;;;;;;-1.85;70.88;102260.53;5378428;32;34360;-63
2024/01/22 03:20:24;;;;;;;;;;;;;;;-1.31;68.54;102259.25;5356588;32;35218;-70
2024/01/22 03:23:26;;;;;;;;;;;;;;;-0.92;66.35;102254.75;5372411;32;34382;-71
2024/01/22 03:26:28;;;;;;;;;;;;;;;-0.60;64.86;102255.06;5366121;32;34465;-72
2024/01/22 03:29:30;;;;;;;;;;;;;;;-0.65;64.17;102244.53;5359648;32;35144;-71
2024/01/22 03:32:32;;;;;;;;;;;;;;;-0.61;64.25;102251.59;5368067;32;34459;-64
2024/01/22 03:35:34;;;;;;;;;;;;;;;-0.77;64.87;102238.97;5369973;32;34579;-71
2024/01/22 03:38:38;;;;;;;;;;;;;;;-0.78;65.19;102244.94;5372194;32;34494;-64
2024/01/22 03:41:41;;;;;;;;;;;;;;;-1.43;66.94;102248.47;5368866;32;35053;-63
2024/01/22 03:44:43;;;;;;;;;;;;;;;-1.37;68.13;102262.47;5372853;32;35452;-70
2024/01/22 03:47:45;;;;;;;;;;;;;;;-1.55;68.66;102263.44;5354262;32;35139;-64
2024/01/22 03:50:48;;;;;;;;;;;;;;;-1.79;69.06;102251.34;5373342;32;34759;-70
2024/01/22 03:53:50;;;;;;;;;;;;;;;-1.83;70.19;102254.59;5367927;32;35792;-65
2024/01/22 03:56:52;;;;;;;;;;;;;;;-1.78;70.38;102255.69;5351456;32;35488;-71
2024/01/22 03:59:54;;;;;;;;;;;;;;;-2.04;70.80;102264.03;5373057;32;34748;-71
2024/01/22 04:02:57;;;;;;;;;;;;;;;-1.93;71.55;102267.94;5366419;32;35322;-65
2024/01/22 04:05:59;;;;;;;;;;;;;;;-1.43;69.48;102256.19;5372476;32;34263;-65
2024/01/22 04:09:01;;;;;;;;;;;;;;;-1.74;70.04;102249.84;5368523;32;34458;-71
2024/01/22 04:12:06;;;;;;;;;;;;;;;-2.06;70.58;102252.75;5372382;32;34814;-72
2024/01/22 04:15:08;;;;;;;;;;;;;;;-1.94;70.36;102259.31;5369101;32;35635;-63
2024/01/22 04:18:11;;;;;;;;;;;;;;;-1.64;69.21;102248.50;5354215;32;35444;-64
2024/01/22 04:21:13;;;;;;;;;;;;;;;-1.94;69.86;102242.97;5373863;32;35441;-71
2024/01/22 04:24:15;;;;;;;;;;;;;;;-2.21;70.58;102235.84;5352179;32;34277;-71
2024/01/22 04:27:17;;;;;;;;;;;;;;;-2.30;70.51;102234.59;5356903;32;34924;-65
2024/01/22 04:30:20;;;;;;;;;;;;;;;-2.64;71.35;102235.72;5367745;32;34254;-64
2024/01/22 04:33:22;;;;;;;;;;;;;;;-1.81;68.77;102229.75;5356810;32;34867;-64
2024/01/22 04:36:24;;;;;;;;;;;;;;;-1.01;66.56;102232.88;5355112;32;35232;-70
2024/01/22 04:39:27;;;;;;;;;;;;;;;-1.82;68.36;102225.44;5353939;32;34661;-64
2024/01/22 04:42:29;;;;;;;;;;;;;;;-2.14;70.15;102242.12;5372545;32;34534;-69
2024/01/22 04:45:31;;;;;;;;;;;;;;;-1.41;68.29;102228.78;5367983;32;35465;-71
2024/01/22 04:48:33;;;;;;;;;;;;;;;-1.76;67.49;102230.84;5372541;32;34762;-64
2024/01/22 04:51:36;;;;;;;;;;;;;;;-1.62;68.74;102243.41;5367874;32;34406;-71
2024/01/22 04:54:38;;;;;;;;;;;;;;;-2.01;69.63;102246.09;5371841;32;35633;-71
2024/01/22 04:57:40;;;;;;;;;;;;;;;-1.86;69.12;102241.59;5349884;32;34957;-63
2024/01/22 05:00:43;;;;;;;;;;;;;;;-1.94;69.09;102255.84;5368026;32;35340;-62
2024/01/22 05:03:45;;;;;;;;;;;;;;;-1.72;68.58;102260.22;5370615;32;35001;-65
2024/01/22 05:06:47;;;;;;;;;;;;;;;-1.37;67.14;102266.75;5367504;32;34338;-64
2024/01/22 05:09:52;;;;;;;;;;;;;;;-0.83;65.30;102251.66;5372452;32;34642;-65
2024/01/22 05:12:54;;;;;;;;;;;;;;;-1.36;66.79;102240.13;5367379;32;34627;-71
2024/01/22 05:15:56;;;;;;;;;;;;;;;-2.57;70.17;102245.47;5356550;32;35220;-72
2024/01/22 05:18:58;;;;;;;;;;;;;;;-2.59;71.11;102259.94;5370288;32;36713;-63
2024/01/22 05:22:01;;;;;;;;;;;;;;;-2.12;70.62;102244.81;5368263;32;34563;-64
2024/01/22 05:25:03;;;;;;;;;;;;;;;-2.39;71.32;102240.19;5356901;32;34485;-65
2024/01/22 05:28:05;;;;;;;;;;;;;;;-2.28;70.28;102228.69;5364913;32;35107;-65
2024/01/22 05:31:07;;;;;;;;;;;;;;;-2.71;72.22;102223.34;5357780;32;35182;-71
2024/01/22 05:34:09;;;;;;;;;;;;;;;-2.84;72.41;102218.47;5366988;32;35415;-70
2024/01/22 05:37:12;;;;;;;;;;;;;;;-2.83;72.62;102222.84;5353043;32;37319;-66
2024/01/22 05:40:14;;;;;;;;;;;;;;;-2.55;72.08;102222.34;5339887;32;35764;-70
2024/01/22 05:43:16;;;;;;;;;;;;;;;-2.59;71.45;102205.00;5365983;32;35889;-72
2024/01/22 05:46:19;;;;;;;;;;;;;;;-1.87;69.44;102211.47;5374466;32;35155;-64
2024/01/22 05:49:21;;;;;;;;;;;;;;;-2.34;70.86;102218.09;5355385;32;34986;-65
2024/01/22 05:52:24;;;;;;;;;;;;;;;-1.66;68.97;102208.88;5359606;32;34664;-64
2024/01/22 05:55:28;;;;;;;;;;;;;;;-1.29;67.16;102203.44;5354614;32;35318;-71
2024/01/22 05:58:30;;;;;;;;;;;;;;;-2.37;69.00;102212.84;5361778;32;34922;-66
2024/01/22 06:01:32;;;;;;;;;;;;;;;-1.58;68.74;102207.47;5356986;32;34724;-71
2024/01/22 06:04:34;;;;;;;;;;;;;;;-0.83;65.79;102202.59;5353568;32;35843;-66
2024/01/22 06:07:36;;;;;;;;;;;;;;;-1.29;66.37;102203.44;5372710;32;34901;-72
2024/01/22 06:10:38;;;;;;;;;;;;;;;-0.79;64.67;102211.31;5369136;32;34275;-64
2024/01/22 06:13:41;;;;;;;;;;;;;;;-1.18;66.04;102203.84;5373216;32;35137;-64
2024/01/22 06:17:01;;;;;;;;;;;;;;;-1.01;65.39;102200.22;5357738;32;34897;-65
2024/01/22 06:20:03;;;;;;;;;;;;;;;-0.77;63.71;102200.25;5369242;32;35257;-64
2024/01/22 06:23:06;;;;;;;;;;;;;;;-0.77;63.72;102200.25;5372111;32;34939;-72
2024/01/22 06:26:08;;;;;;;;;;;;;;;-0.94;63.36;102196.16;5365798;32;34905;-71
2024/01/22 06:29:13;;;;;;;;;;;;;;;-0.78;63.23;102201.03;5359092;32;34953;-64
2024/01/22 06:32:17;;;;;;;;;;;;;;;-0.93;64.08;102192.75;5367753;32;36672;-65
2024/01/22 06:35:19;;;;;;;;;;;;;;;-0.69;63.21;102203.97;5371380;32;34885;-72
2024/01/22 06:38:21;;;;;;;;;;;;;;;-0.88;62.55;102209.28;5360527;32;35688;-63
2024/01/22 06:41:25;;;;;;;;;;;;;;;-0.92;62.72;102216.03;5367548;32;34702;-72
2024/01/22 06:44:27;;;;;;;;;;;;;;;-0.90;62.97;102208.31;5372851;32;35513;-71
2024/01/22 06:47:30;;;;;;;;;;;;;;;-1.06;63.58;102218.94;5365919;32;34953;-73
2024/01/22 06:50:32;;;;;;;;;;;;;;;-1.61;65.35;102225.44;5367994;32;35347;-70
2024/01/22 06:53:34;;;;;;;;;;;;;;;-1.78;66.25;102232.47;5364489;32;36102;-73
2024/01/22 06:56:38;;;;;;;;;;;;;;;-1.35;67.13;102231.59;5354486;32;34807;-74
2024/01/22 06:59:45;;;;;;;;;;;;;;;-0.81;65.43;102221.59;5367078;32;35551;-73
2024/01/22 07:02:49;;;;;;;;;;;;;;;-0.71;64.37;102226.28;5346242;32;34887;-70
2024/01/22 07:05:52;;;;;;;;;;;;;;;-0.37;63.19;102230.94;5350678;32;34853;-70
2024/01/22 07:08:54;;;;;;;;;;;;;;;-0.40;62.69;102229.94;5364624;32;34279;-67
2024/01/22 07:11:57;;;;;;;;;;;;;;;0.16;60.88;102234.44;5356199;32;34737;-69
2024/01/22 07:15:00;;;;;;;;;;;;;;;-0.39;62.35;102240.31;5370383;32;35611;-70
2024/01/22 07:18:03;;;;;;;;;;;;;;;-0.55;62.62;102238.91;5346909;32;36990;-74
2024/01/22 07:21:08;;;;;;;;;;;;;;;-1.42;65.55;102250.22;5358698;32;36058;-71
2024/01/22 07:24:10;;;;;;;;;;;;;;;-0.34;63.99;102237.91;5366658;32;34803;-69
2024/01/22 07:27:12;;;;;;;;;;;;;;;-0.99;64.12;102245.00;5362538;32;33657;-69
2024/01/22 07:30:14;;;;;;;;;;;;;;;-1.51;66.62;102250.75;5357606;32;36176;-65
2024/01/22 07:33:17;;;;;;;;;;;;;;;-0.74;65.34;102245.94;5368372;32;35884;-70
2024/01/22 07:36:19;;;;;;;;;;;;;;;-0.34;62.88;102243.06;5369822;32;34415;-67
2024/01/22 07:39:21;;;;;;;;;;;;;;;-0.08;61.20;102249.12;5368421;32;35411;-68
2024/01/22 07:42:23;;;;;;;;;;;;;;;-0.41;61.29;102251.44;5354861;32;34295;-72
2024/01/22 07:45:26;;;;;;;;;;;;;;;-0.98;63.58;102256.22;5359936;32;34626;-71
2024/01/22 07:48:28;;;;;;;;;;;;;;;-0.85;62.37;102258.44;5367476;32;35557;-70
2024/01/22 07:51:32;;;;;;;;;;;;;;;-1.12;64.94;102266.91;5364813;32;34846;-69
2024/01/22 07:54:34;;;;;;;;;;;;;;;-1.69;65.90;102268.06;5353749;32;34327;-67
2024/01/22 07:57:36;;;;;;;;;;;;;;;-1.60;65.45;102263.28;5360145;32;34820;-69
2024/01/22 08:00:41;;;;;;;;;;;;;;;-1.63;65.44;102252.84;5332221;32;35474;-67
2024/01/22 08:03:43;;;;;;;;;;;;;;;-1.39;65.10;102256.38;5359078;32;35538;-76
2024/01/22 08:06:46;;;;;;;;;;;;;;;-0.87;62.67;102249.75;5346099;32;34901;-70
2024/01/22 08:09:48;;;;;;;;;;;;;;;-1.12;63.19;102254.00;5363822;32;37226;-78
2024/01/22 08:12:50;;;;;;;;;;;;;;;-1.10;64.04;102252.34;5345513;32;34300;-85
2024/01/22 08:15:52;;;;;;;;;;;;;;;-1.55;64.36;102246.28;5354887;32;35876;-77
2024/01/22 08:18:54;;;;;;;;;;;;;;;-1.23;64.62;102250.13;5359124;32;35789;-75
2024/01/22 08:21:57;;;;;;;;;;;;;;;-0.28;62.16;102243.28;5364438;32;34291;-69
2024/01/22 08:24:59;;;;;;;;;;;;;;;-0.10;60.79;102241.31;5368077;32;34297;-73
2024/01/22 08:28:02;;;;;;;;;;;;;;;1.29;56.52;102230.16;5350017;32;34490;-74
2024/01/22 08:31:06;;;;;;;;;;;;;;;0.51;58.79;102230.37;5353325;32;35310;-75
2024/01/22 08:34:08;;;;;;;;;;;;;;;0.18;59.55;102231.91;5364079;32;34346;-72
2024/01/22 08:37:11;;;;;;;;;;;;;;;-0.77;62.17;102233.81;5364345;32;35949;-73
2024/01/22 08:40:17;;;;;;;;;;;;;;;-0.44;61.00;102244.47;5364413;32;34240;-79
2024/01/22 08:43:19;;;;;;;;;;;;;;;-0.70;62.37;102251.28;5351631;32;35598;-73
2024/01/22 08:46:23;;;;;;;;;;;;;;;-0.42;60.90;102250.56;5350176;32;34024;-76
2024/01/22 08:49:25;;;;;;;;;;;;;;;-0.09;61.10;102239.63;5351944;32;35441;-69
2024/01/22 08:52:28;;;;;;;;;;;;;;;-0.63;61.85;102244.63;5347241;32;34575;-69
2024/01/22 08:55:30;;;;;;;;;;;;;;;-0.36;61.98;102242.12;5356624;32;34158;-67
2024/01/22 08:58:32;;;;;;;;;;;;;;;0.02;60.04;102232.25;5356831;32;34451;-68
2024/01/22 09:01:34;;;;;;;;;;;;;;;0.82;58.86;102239.09;5344612;32;35605;-66
2024/01/22 09:04:36;;;;;;;;;;;;;;;0.25;59.63;102231.25;5356734;32;34637;-68
2024/01/22 09:07:40;;;;;;;;;;;;;;;-0.84;63.19;102232.69;5345591;32;35786;-68
2024/01/22 09:10:42;;;;;;;;;;;;;;;-0.09;61.42;102219.81;5341452;32;35012;-74
2024/01/22 09:13:44;;;;;;;;;;;;;;;-0.03;61.17;102216.56;5362400;32;35560;-67
2024/01/22 09:16:48;;;;;;;;;;;;;;;0.01;61.18;102214.97;5345961;32;34210;-75
2024/01/22 09:19:50;;;;;;;;;;;;;;;-0.56;62.04;102216.47;5342383;32;34312;-73
2024/01/22 09:22:53;;;;;;;;;;;;;;;0.18;60.83;102213.78;5347133;32;34546;-73
2024/01/22 09:25:55;;;;;;;;;;;;;;;0.06;59.40;102209.09;5351703;32;34985;-71
2024/01/22 09:28:57;;;;;;;;;;;;;;;-0.99;63.87;102198.56;5347615;32;34351;-70
2024/01/22 09:31:59;;;;;;;;;;;;;;;0.11;62.10;102193.75;5365072;32;34692;-74
2024/01/22 09:35:01;;;;;;;;;;;;;;;0.76;59.23;102187.13;5367034;32;34376;-75
2024/01/22 09:38:09;;;;;;;;;;;;;;;-0.23;62.82;102184.88;5358163;32;34419;-69
2024/01/22 09:41:13;;;;;;;;;;;;;;;0.48;60.38;102175.97;5351891;32;34893;-70
2024/01/22 09:44:15;;;;;;;;;;;;;;;0.71;60.07;102184.44;5365309;32;35274;-67
2024/01/22 09:47:17;;;;;;;;;;;;;;;0.89;59.27;102168.53;5365624;32;34635;-67
2024/01/22 09:50:19;;;;;;;;;;;;;;;0.71;59.25;102165.41;5362139;32;34868;-69
2024/01/22 09:53:22;;;;;;;;;;;;;;;1.47;57.28;102141.66;5349002;32;35877;-67
2024/01/22 09:56:26;;;;;;;;;;;;;;;1.77;56.63;102133.78;5348741;32;35547;-69
2024/01/22 09:59:28;;;;;;;;;;;;;;;0.37;61.02;102146.31;5356506;32;35423;-72
2024/01/22 10:02:30;;;;;;;;;;;;;;;1.24;58.96;102127.22;5359074;32;35838;-71
2024/01/22 10:05:33;;;;;;;;;;;;;;;1.34;58.93;102103.31;5344662;32;37181;-71
2024/01/22 10:08:37;;;;;;;;;;;;;;;0.83;60.11;102116.59;5344085;32;35075;-71
2024/01/22 10:11:39;;;;;;;;;;;;;;;1.40;58.78;102106.06;5367805;32;35401;-69
2024/01/22 10:14:42;;;;;;;;;;;;;;;1.93;57.79;102098.72;5365086;32;35818;-73
2024/01/22 10:17:44;;;;;;;;;;;;;;;2.42;55.68;102092.03;5342787;32;35233;-68
2024/01/22 10:20:46;;;;;;;;;;;;;;;1.77;56.29;102087.13;5361876;32;34994;-73
2024/01/22 10:23:58;;;;;;;;;;;;;;;2.65;54.58;102085.62;5349136;32;34789;-78
2024/01/22 10:27:13;;;;;;;;;;;;;;;2.93;53.94;102073.19;5349931;32;34913;-71
2024/01/22 10:30:20;;;;;;;;;;;;;;;2.85;52.99;102072.16;5360363;32;36233;-70
2024/01/22 10:33:22;;;;;;;;;;;;;;;2.74;55.46;102073.66;5352930;32;35947;-68
2024/01/22 10:36:25;;;;;;;;;;;;;;;5.04;51.65;102045.91;5356303;32;33253;-72
2024/01/22 10:39:27;;;;;;;;;;;;;;;6.82;44.36;102037.50;5348332;32;34255;-70
2024/01/22 10:42:29;;;;;;;;;;;;;;;7.20;43.93;102034.94;5353081;32;34972;-72
2024/01/22 10:45:32;;;;;;;;;;;;;;;8.08;40.69;102020.06;5347152;32;35350;-70
2024/01/22 10:48:34;;;;;;;;;;;;;;;6.85;42.67;102016.59;5335046;32;34613;-71
2024/01/22 10:51:48;;;;;;;;;;;;;;;8.26;40.52;102001.66;5346548;32;35253;-72
2024/01/22 10:54:53;;;;;;;;;;;;;;;8.66;38.94;101989.25;5352163;32;36307;-66
2024/01/22 10:57:55;;;;;;;;;;;;;;;7.06;41.77;101989.63;5345802;32;35805;-72
2024/01/22 11:00:59;;;;;;;;;;;;;;;8.30;39.94;101971.06;5350966;32;34339;-70
2024/01/22 11:04:01;;;;;;;;;;;;;;;8.38;39.35;101966.72;5353421;32;35674;-73
2024/01/22 11:07:04;;;;;;;;;;;;;;;8.49;38.94;101962.28;5343141;32;34954;-72
2024/01/22 11:10:06;;;;;;;;;;;;;;;8.18;39.23;101965.87;5360749;32;34452;-73
2024/01/22 11:13:08;;;;;;;;;;;;;;;7.69;39.98;101968.66;5354752;32;34356;-78
2024/01/22 11:16:10;;;;;;;;;;;;;;;7.36;40.52;101960.00;5349293;32;35454;-70
2024/01/22 11:19:19;;;;;;;;;;;;;;;8.38;38.87;101959.72;5350931;32;35640;-72
2024/01/22 11:22:22;;;;;;;;;;;;;;;7.94;39.28;101941.53;5349076;32;35009;-74
2024/01/22 11:25:24;;;;;;;;;;;;;;;7.07;41.10;101945.16;5361525;32;34324;-71
2024/01/22 11:28:27;;;;;;;;;;;;;;;6.61;41.26;101932.94;5340142;32;34787;-72
2024/01/22 11:31:31;;;;;;;;;;;;;;;6.48;41.80;101934.66;5359402;32;34185;-71
2024/01/22 11:34:39;;;;;;;;;;;;;;;4.22;48.65;101935.63;5364049;32;34239;-70
2024/01/22 11:37:46;;;;;;;;;;;;;;;5.36;47.09;101931.50;5360399;32;34331;-72
2024/01/22 11:40:54;;;;;;;;;;;;;;;6.87;42.87;101907.69;5354815;32;33042;-69
2024/01/22 11:44:00;;;;;;;;;;;;;;;5.75;44.02;101903.91;5361055;32;35740;-73
2024/01/22 11:47:08;;;;;;;;;;;;;;;5.77;45.54;101907.38;5364958;32;34263;-71
2024/01/22 11:50:10;;;;;;;;;;;;;;;5.83;45.24;101912.63;5349026;32;34002;-75
2024/01/22 11:53:13;;;;;;;;;;;;;;;6.46;42.76;101903.31;5350853;32;35371;-78
2024/01/22 11:56:21;;;;;;;;;;;;;;;6.49;42.74;101892.84;5360814;32;34482;-90
2024/01/22 11:59:26;;;;;;;;;;;;;;;6.04;44.21;101885.78;5366274;32;34404;-79
2024/01/22 12:02:28;;;;;;;;;;;;;;;5.99;43.54;101884.91;5350754;32;34322;-72
2024/01/22 12:05:30;;;;;;;;;;;;;;;5.71;43.72;101871.69;5361646;32;34268;-74
2024/01/22 12:08:35;;;;;;;;;;;;;;;5.60;44.14;101875.09;5365188;32;34384;-77
2024/01/22 12:11:37;;;;;;;;;;;;;;;5.29;44.96;101867.13;5363512;32;34109;-75
2024/01/22 12:14:39;;;;;;;;;;;;;;;5.36;44.54;101871.53;5352754;32;34115;-75
2024/01/22 12:17:42;;;;;;;;;;;;;;;4.04;48.35;101882.50;5351879;32;34494;-79
2024/01/22 12:20:46;;;;;;;;;;;;;;;5.14;44.93;101870.50;5365452;32;34243;-72
2024/01/22 12:23:48;;;;;;;;;;;;;;;4.60;45.26;101863.13;5367748;32;34332;-77
2024/01/22 12:26:51;;;;;;;;;;;;;;;5.19;44.40;101865.31;5363119;32;34214;-77
2024/01/22 12:30:04;;;;;;;;;;;;;;;4.69;45.71;101863.19;5354260;32;35226;-75
2024/01/22 12:33:07;;;;;;;;;;;;;;;5.04;44.35;101857.41;5343752;32;35534;-72
2024/01/22 12:36:11;;;;;;;;;;;;;;;4.67;45.80;101864.94;5349494;32;35368;-70
2024/01/22 12:39:18;;;;;;;;;;;;;;;4.00;46.52;101865.13;5347043;32;35904;-70
2024/01/22 12:42:21;;;;;;;;;;;;;;;4.15;46.74;101869.62;5359928;32;35134;-73
2024/01/22 12:45:26;;;;;;;;;;;;;;;4.39;45.64;101865.53;5359984;32;34502;-78
2024/01/22 12:48:30;;;;;;;;;;;;;;;3.64;47.52;101872.47;5351701;32;35407;-68
2024/01/22 12:51:35;;;;;;;;;;;;;;;2.65;50.27;101882.25;5365689;32;34295;-76
2024/01/22 12:54:37;;;;;;;;;;;;;;;3.25;48.72;101877.16;5365140;32;35059;-69
2024/01/22 12:57:40;;;;;;;;;;;;;;;3.22;49.76;101877.13;5362014;32;35431;-70
2024/01/22 13:00:42;;;;;;;;;;;;;;;4.31;47.12;101874.13;5364794;32;35276;-70
2024/01/22 13:03:48;;;;;;;;;;;;;;;3.58;47.85;101883.66;5355773;32;34730;-70
2024/01/22 13:06:54;;;;;;;;;;;;;;;4.20;47.33;101883.56;5367685;32;35132;-71
2024/01/22 13:09:56;;;;;;;;;;;;;;;4.16;47.55;101878.31;5365844;32;33275;-78
2024/01/22 13:13:00;;;;;;;;;;;;;;;3.37;49.10;101875.59;5344376;32;38770;-71
2024/01/22 13:16:02;;;;;;;;;;;;;;;3.71;49.03;101867.37;5369781;32;35040;-76
2024/01/22 13:19:18;;;;;;;;;;;;;;;2.41;51.22;101867.13;5370993;32;35289;-77
2024/01/22 13:22:21;;;;;;;;;;;;;;;4.50;47.56;101859.56;5354216;32;35191;-75
2024/01/22 13:25:26;;;;;;;;;;;;;;;4.17;47.58;101848.81;5346108;32;34790;-79
2024/01/22 13:28:29;;;;;;;;;;;;;;;3.92;48.21;101858.94;5353941;32;36133;-69
2024/01/22 13:31:32;;;;;;;;;;;;;;;4.28;46.52;101855.03;5353547;32;35889;-65
2024/01/22 13:34:36;;;;;;;;;;;;;;;3.17;50.07;101858.00;5367696;32;34409;-70
2024/01/22 13:37:38;;;;;;;;;;;;;;;3.49;48.25;101834.16;5355694;32;34237;-75
2024/01/22 13:40:41;;;;;;;;;;;;;;;3.66;48.21;101832.63;5353018;32;34354;-74
2024/01/22 13:43:44;;;;;;;;;;;;;;;3.42;49.14;101834.94;5358637;32;34166;-68
2024/01/22 13:46:52;;;;;;;;;;;;;;;3.04;50.39;101824.88;5368015;32;35342;-68
2024/01/22 13:49:57;;;;;;;;;;;;;;;2.60;50.89;101825.06;5371914;32;34402;-69
2024/01/22 13:52:59;;;;;;;;;;;;;;;2.35;51.73;101834.16;5357690;32;34596;-69
2024/01/22 13:56:09;;;;;;;;;;;;;;;2.26;52.90;101840.91;5353469;32;35139;-69
2024/01/22 13:59:17;;;;;;;;;;;;;;;1.17;56.24;101828.34;5370476;32;34307;-70
2024/01/22 14:02:19;;;;;;;;;;;;;;;2.82;51.47;101808.09;5365936;32;36465;-70
2024/01/22 14:05:21;;;;;;;;;;;;;;;2.89;50.91;101801.28;5374145;32;34384;-71
2024/01/22 14:08:25;;;;;;;;;;;;;;;2.80;51.19;101796.81;5367436;32;34515;-70
2024/01/22 14:11:28;;;;;;;;;;;;;;;2.52;52.12;101808.50;5353536;32;35446;-66
2024/01/22 14:14:31;;;;;;;;;;;;;;;2.56;51.30;101796.44;5359901;32;32972;-65
2024/01/22 14:17:38;;;;;;;;;;;;;;;2.93;50.55;101796.16;5366917;32;33669;-69
2024/01/22 14:20:41;;;;;;;;;;;;;;;1.91;52.92;101807.41;5365027;32;32345;-64
2024/01/22 14:23:43;;;;;;;;;;;;;;;0.99;55.99;101800.31;5356491;32;34972;-66
2024/01/22 14:26:50;;;;;;;;;;;;;;;2.06;53.79;101793.84;5370910;32;35416;-66
2024/01/22 14:29:53;;;;;;;;;;;;;;;1.76;54.53;101794.16;5366332;32;34440;-67
2024/01/22 14:32:55;;;;;;;;;;;;;;;1.78;53.90;101800.25;5367646;32;34652;-67
2024/01/22 14:35:58;;;;;;;;;;;;;;;1.26;55.10;101786.22;5360299;32;35066;-68
2024/01/22 14:39:02;;;;;;;;;;;;;;;1.24;56.62;101785.34;5367465;32;34919;-67
2024/01/22 14:42:07;;;;;;;;;;;;;;;1.19;57.08;101782.63;5374626;32;34427;-66
2024/01/22 14:45:12;;;;;;;;;;;;;;;0.70;58.82;101791.88;5354508;32;35738;-72
2024/01/22 14:48:19;;;;;;;;;;;;;;;0.75;59.16;101785.09;5371526;32;34393;-75
2024/01/22 14:51:21;;;;;;;;;;;;;;;1.05;58.38;101791.81;5373697;32;35576;-71
2024/01/22 14:54:23;;;;;;;;;;;;;;;0.30;59.59;101784.00;5370803;32;35056;-73
2024/01/22 14:57:26;;;;;;;;;;;;;;;0.87;59.82;101774.16;5372596;32;35545;-76
2024/01/22 15:00:28;;;;;;;;;;;;;;;1.46;57.20;101760.72;5354357;32;34216;-69
2024/01/22 15:03:30;;;;;;;;;;;;;;;0.37;60.08;101760.03;5355235;32;34777;-74
2024/01/22 15:06:33;;;;;;;;;;;;;;;0.81;59.74;101756.78;5351194;32;35605;-73
2024/01/22 15:09:35;;;;;;;;;;;;;;;0.92;58.62;101757.03;5356086;32;34144;-74
2024/01/22 15:12:38;;;;;;;;;;;;;;;0.18;62.05;101748.34;5373043;32;33741;-77
2024/01/22 15:15:41;;;;;;;;;;;;;;;-1.19;66.49;101745.44;5356894;32;34679;-76
2024/01/22 15:18:44;;;;;;;;;;;;;;;-0.50;66.31;101745.72;5360465;32;32652;-71
2024/01/22 15:21:52;;;;;;;;;;;;;;;0.41;63.28;101741.19;5372135;32;35549;-73
2024/01/22 15:24:54;;;;;;;;;;;;;;;0.57;62.73;101738.09;5371189;32;34039;-71
2024/01/22 15:27:56;;;;;;;;;;;;;;;0.30;63.28;101746.06;5355282;32;34944;-72
2024/01/22 15:31:00;;;;;;;;;;;;;;;0.28;64.43;101724.50;5353055;32;36629;-70
2024/01/22 15:34:04;;;;;;;;;;;;;;;0.82;62.72;101703.28;5370830;32;34976;-74
2024/01/22 15:37:07;;;;;;;;;;;;;;;1.42;60.97;101697.63;5356935;32;33854;-69
2024/01/22 15:40:10;;;;;;;;;;;;;;;1.07;61.61;101700.38;5359080;32;35198;-69
2024/01/22 15:43:12;;;;;;;;;;;;;;;1.37;61.16;101691.50;5350493;32;35029;-68
2024/01/22 15:46:17;;;;;;;;;;;;;;;0.69;64.30;101688.34;5356926;32;36793;-70
2024/01/22 15:49:22;;;;;;;;;;;;;;;0.39;65.37;101686.84;5358978;32;34553;-67